sensor_id;sensor_type;location;lat;lon;timestamp;temperature;humidity
38784;DHT22;24531;45.502;12.238;2023-08-30T00:00:17;22.50;99.90
38784;DHT22;24531;45.502;12.238;2023-08-30T00:02:46;22.50;99.90
38784;DHT22;24531;45.502;12.238;2023-08-30T00:05:12;22.40;99.90
38784;DHT22;24531;45.502;12.238;2023-08-30T00:07:38;22.50;99.90
38784;DHT22;24531;45.502;12.238;2023-08-30T00:10:04;22.50;99.90
38784;DHT22;24531;45.502;12.238;2023-08-30T00:12:30;22.50;99.90
38784;DHT22;24531;45.502;12.238;2023-08-30T00:14:56;22.50;99.90
38784;DHT22;24531;45.502;12.238;2023-08-30T00:17:22;22.50;99.90
38784;DHT22;24531;45.502;12.238;2023-08-30T00:19:48;22.50;99.90
38784;DHT22;24531;45.502;12.238;2023-08-30T00:22:14;22.50;99.90
38784;DHT22;24531;45.502;12.238;2023-08-30T00:24:39;22.50;99.90
38784;DHT22;24531;45.502;12.238;2023-08-30T00:27:05;22.50;99.90
38784;DHT22;24531;45.502;12.238;2023-08-30T00:29:31;22.50;99.90
38784;DHT22;24531;45.502;12.238;2023-08-30T00:31:56;22.50;99.90
38784;DHT22;24531;45.502;12.238;2023-08-30T00:34:22;22.50;99.90
38784;DHT22;24531;45.502;12.238;2023-08-30T00:36:48;22.50;99.90
38784;DHT22;24531;45.502;12.238;2023-08-30T00:39:13;22.50;99.90
38784;DHT22;24531;45.502;12.238;2023-08-30T00:41:40;22.50;99.90
38784;DHT22;24531;45.502;12.238;2023-08-30T00:44:05;22.50;99.90
38784;DHT22;24531;45.502;12.238;2023-08-30T00:46:32;22.50;99.90
38784;DHT22;24531;45.502;12.238;2023-08-30T00:48:59;22.40;99.90
38784;DHT22;24531;45.502;12.238;2023-08-30T00:51:26;22.40;99.90
38784;DHT22;24531;45.502;12.238;2023-08-30T00:53:51;22.40;99.90
38784;DHT22;24531;45.502;12.238;2023-08-30T00:56:18;22.50;99.90
38784;DHT22;24531;45.502;12.238;2023-08-30T00:58:45;22.50;99.90
38784;DHT22;24531;45.502;12.238;2023-08-30T01:01:10;22.50;99.90
38784;DHT22;24531;45.502;12.238;2023-08-30T01:03:37;22.50;99.90
38784;DHT22;24531;45.502;12.238;2023-08-30T01:06:03;22.50;99.90
38784;DHT22;24531;45.502;12.238;2023-08-30T01:08:29;22.40;99.90
38784;DHT22;24531;45.502;12.238;2023-08-30T01:11:32;22.50;99.90
38784;DHT22;24531;45.502;12.238;2023-08-30T01:16:25;22.50;99.90
38784;DHT22;24531;45.502;12.238;2023-08-30T01:18:54;22.40;99.90
38784;DHT22;24531;45.502;12.238;2023-08-30T01:21:32;22.40;99.90
38784;DHT22;24531;45.502;12.238;2023-08-30T01:24:03;22.40;99.90
38784;DHT22;24531;45.502;12.238;2023-08-30T01:29:01;22.30;99.90
38784;DHT22;24531;45.502;12.238;2023-08-30T01:31:29;22.20;99.90
38784;DHT22;24531;45.502;12.238;2023-08-30T01:33:59;22.20;99.90
38784;DHT22;24531;45.502;12.238;2023-08-30T01:36:26;22.20;99.90
38784;DHT22;24531;45.502;12.238;2023-08-30T01:38:52;22.20;99.90
38784;DHT22;24531;45.502;12.238;2023-08-30T01:41:19;22.10;99.90
38784;DHT22;24531;45.502;12.238;2023-08-30T01:43:46;22.10;99.90
38784;DHT22;24531;45.502;12.238;2023-08-30T01:46:13;22.10;99.90
38784;DHT22;24531;45.502;12.238;2023-08-30T01:48:39;22.10;99.90
38784;DHT22;24531;45.502;12.238;2023-08-30T01:51:07;22.20;99.90
38784;DHT22;24531;45.502;12.238;2023-08-30T01:53:33;22.20;99.90
38784;DHT22;24531;45.502;12.238;2023-08-30T01:55:59;22.20;99.90
38784;DHT22;24531;45.502;12.238;2023-08-30T01:58:25;22.20;99.90
38784;DHT22;24531;45.502;12.238;2023-08-30T02:00:50;22.20;99.90
38784;DHT22;24531;45.502;12.238;2023-08-30T02:03:16;22.20;99.90
38784;DHT22;24531;45.502;12.238;2023-08-30T02:05:57;22.20;99.90
38784;DHT22;24531;45.502;12.238;2023-08-30T02:08:35;22.10;99.90
38784;DHT22;24531;45.502;12.238;2023-08-30T02:11:03;22.10;99.90
38784;DHT22;24531;45.502;12.238;2023-08-30T02:13:30;22.10;99.90
38784;DHT22;24531;45.502;12.238;2023-08-30T02:16:00;22.10;99.90
38784;DHT22;24531;45.502;12.238;2023-08-30T02:18:26;22.10;99.90
38784;DHT22;24531;45.502;12.238;2023-08-30T02:20:53;22.10;99.90
38784;DHT22;24531;45.502;12.238;2023-08-30T02:23:18;22.10;99.90
38784;DHT22;24531;45.502;12.238;2023-08-30T02:25:46;22.10;99.90
38784;DHT22;24531;45.502;12.238;2023-08-30T02:28:11;22.10;99.90
38784;DHT22;24531;45.502;12.238;2023-08-30T02:30:37;22.10;99.90
38784;DHT22;24531;45.502;12.238;2023-08-30T02:33:03;22.10;99.90
38784;DHT22;24531;45.502;12.238;2023-08-30T02:35:28;22.10;99.90
38784;DHT22;24531;45.502;12.238;2023-08-30T02:37:54;22.10;99.90
38784;DHT22;24531;45.502;12.238;2023-08-30T02:40:19;22.00;99.90
38784;DHT22;24531;45.502;12.238;2023-08-30T02:42:45;22.10;99.90
38784;DHT22;24531;45.502;12.238;2023-08-30T02:45:11;22.10;99.90
38784;DHT22;24531;45.502;12.238;2023-08-30T02:47:36;22.00;99.90
38784;DHT22;24531;45.502;12.238;2023-08-30T02:50:02;22.00;99.90
38784;DHT22;24531;45.502;12.238;2023-08-30T02:52:27;22.00;99.90
38784;DHT22;24531;45.502;12.238;2023-08-30T02:54:53;22.00;99.90
38784;DHT22;24531;45.502;12.238;2023-08-30T02:57:19;21.90;99.90
38784;DHT22;24531;45.502;12.238;2023-08-30T02:59:44;21.90;99.90
38784;DHT22;24531;45.502;12.238;2023-08-30T03:02:10;22.00;99.90
38784;DHT22;24531;45.502;12.238;2023-08-30T03:04:35;21.90;99.90
38784;DHT22;24531;45.502;12.238;2023-08-30T03:07:01;21.90;99.90
38784;DHT22;24531;45.502;12.238;2023-08-30T03:09:27;21.90;99.90
38784;DHT22;24531;45.502;12.238;2023-08-30T03:11:53;21.90;99.90
38784;DHT22;24531;45.502;12.238;2023-08-30T03:14:18;21.90;99.90
38784;DHT22;24531;45.502;12.238;2023-08-30T03:16:44;21.90;99.90
38784;DHT22;24531;45.502;12.238;2023-08-30T03:19:12;21.80;99.90
38784;DHT22;24531;45.502;12.238;2023-08-30T03:21:37;21.90;99.90
38784;DHT22;24531;45.502;12.238;2023-08-30T03:24:03;21.80;99.90
38784;DHT22;24531;45.502;12.238;2023-08-30T03:26:29;21.80;99.90
38784;DHT22;24531;45.502;12.238;2023-08-30T03:28:54;21.80;99.90
38784;DHT22;24531;45.502;12.238;2023-08-30T03:31:21;21.80;99.90
38784;DHT22;24531;45.502;12.238;2023-08-30T03:33:48;21.80;99.90
38784;DHT22;24531;45.502;12.238;2023-08-30T03:36:15;21.80;99.90
38784;DHT22;24531;45.502;12.238;2023-08-30T03:38:42;21.80;99.90
38784;DHT22;24531;45.502;12.238;2023-08-30T03:41:12;21.80;99.90
38784;DHT22;24531;45.502;12.238;2023-08-30T03:43:38;21.80;99.90
38784;DHT22;24531;45.502;12.238;2023-08-30T03:46:04;21.80;99.90
38784;DHT22;24531;45.502;12.238;2023-08-30T03:48:30;21.80;99.90
38784;DHT22;24531;45.502;12.238;2023-08-30T03:50:57;21.80;99.90
38784;DHT22;24531;45.502;12.238;2023-08-30T03:53:23;21.80;99.90
38784;DHT22;24531;45.502;12.238;2023-08-30T03:55:49;21.80;99.90
38784;DHT22;24531;45.502;12.238;2023-08-30T03:58:14;21.80;99.90
38784;DHT22;24531;45.502;12.238;2023-08-30T04:00:40;21.80;99.90
38784;DHT22;24531;45.502;12.238;2023-08-30T04:03:09;21.80;99.90
38784;DHT22;24531;45.502;12.238;2023-08-30T04:05:35;21.80;99.90
38784;DHT22;24531;45.502;12.238;2023-08-30T04:08:02;21.80;99.90
38784;DHT22;24531;45.502;12.238;2023-08-30T04:10:28;21.70;99.90
38784;DHT22;24531;45.502;12.238;2023-08-30T04:12:54;21.60;99.90
38784;DHT22;24531;45.502;12.238;2023-08-30T04:15:19;21.50;99.90
38784;DHT22;24531;45.502;12.238;2023-08-30T04:17:45;21.50;99.90
38784;DHT22;24531;45.502;12.238;2023-08-30T04:20:11;21.60;99.90
38784;DHT22;24531;45.502;12.238;2023-08-30T04:22:36;21.60;99.90
38784;DHT22;24531;45.502;12.238;2023-08-30T04:25:04;21.60;99.90
38784;DHT22;24531;45.502;12.238;2023-08-30T04:27:29;21.60;99.90
38784;DHT22;24531;45.502;12.238;2023-08-30T04:29:55;21.60;99.90
38784;DHT22;24531;45.502;12.238;2023-08-30T04:32:21;21.60;99.90
38784;DHT22;24531;45.502;12.238;2023-08-30T04:34:46;21.60;99.90
38784;DHT22;24531;45.502;12.238;2023-08-30T04:37:12;21.60;99.90
38784;DHT22;24531;45.502;12.238;2023-08-30T04:39:37;21.60;99.90
38784;DHT22;24531;45.502;12.238;2023-08-30T04:42:03;21.60;99.90
38784;DHT22;24531;45.502;12.238;2023-08-30T04:44:29;21.70;99.90
38784;DHT22;24531;45.502;12.238;2023-08-30T04:46:55;21.70;99.90
38784;DHT22;24531;45.502;12.238;2023-08-30T04:49:21;21.70;99.90
38784;DHT22;24531;45.502;12.238;2023-08-30T04:51:47;21.70;99.90
38784;DHT22;24531;45.502;12.238;2023-08-30T04:54:13;21.70;99.90
38784;DHT22;24531;45.502;12.238;2023-08-30T04:56:39;21.70;99.90
38784;DHT22;24531;45.502;12.238;2023-08-30T04:59:05;21.70;99.90
38784;DHT22;24531;45.502;12.238;2023-08-30T05:01:30;21.70;99.90
38784;DHT22;24531;45.502;12.238;2023-08-30T05:03:56;21.70;99.90
38784;DHT22;24531;45.502;12.238;2023-08-30T05:06:22;21.60;99.90
38784;DHT22;24531;45.502;12.238;2023-08-30T05:08:47;21.60;99.90
38784;DHT22;24531;45.502;12.238;2023-08-30T05:11:13;21.60;99.90
38784;DHT22;24531;45.502;12.238;2023-08-30T05:13:38;21.60;99.90
38784;DHT22;24531;45.502;12.238;2023-08-30T05:16:04;21.60;99.90
38784;DHT22;24531;45.502;12.238;2023-08-30T05:18:30;21.70;99.90
38784;DHT22;24531;45.502;12.238;2023-08-30T05:20:56;21.70;99.90
38784;DHT22;24531;45.502;12.238;2023-08-30T05:23:21;21.70;99.90
38784;DHT22;24531;45.502;12.238;2023-08-30T05:25:47;21.70;99.90
38784;DHT22;24531;45.502;12.238;2023-08-30T05:28:12;21.70;99.90
38784;DHT22;24531;45.502;12.238;2023-08-30T05:30:41;21.70;99.90
38784;DHT22;24531;45.502;12.238;2023-08-30T05:33:07;21.70;99.90
38784;DHT22;24531;45.502;12.238;2023-08-30T05:35:32;21.70;99.90
38784;DHT22;24531;45.502;12.238;2023-08-30T05:37:58;21.70;99.90
38784;DHT22;24531;45.502;12.238;2023-08-30T05:40:24;21.80;99.90
38784;DHT22;24531;45.502;12.238;2023-08-30T05:42:50;21.80;99.90
38784;DHT22;24531;45.502;12.238;2023-08-30T05:45:15;21.80;99.90
38784;DHT22;24531;45.502;12.238;2023-08-30T05:47:41;21.80;99.90
38784;DHT22;24531;45.502;12.238;2023-08-30T05:50:07;21.80;99.90
38784;DHT22;24531;45.502;12.238;2023-08-30T05:52:33;21.80;99.90
38784;DHT22;24531;45.502;12.238;2023-08-30T05:54:59;21.80;99.90
38784;DHT22;24531;45.502;12.238;2023-08-30T05:57:24;21.80;99.90
38784;DHT22;24531;45.502;12.238;2023-08-30T05:59:50;21.80;99.90
38784;DHT22;24531;45.502;12.238;2023-08-30T06:02:16;21.80;99.90
38784;DHT22;24531;45.502;12.238;2023-08-30T06:04:42;21.90;99.90
38784;DHT22;24531;45.502;12.238;2023-08-30T06:07:08;21.80;99.90
38784;DHT22;24531;45.502;12.238;2023-08-30T06:09:33;21.90;99.90
38784;DHT22;24531;45.502;12.238;2023-08-30T06:11:59;21.90;99.90
38784;DHT22;24531;45.502;12.238;2023-08-30T06:14:25;21.90;99.90
38784;DHT22;24531;45.502;12.238;2023-08-30T06:16:51;21.90;99.90
38784;DHT22;24531;45.502;12.238;2023-08-30T06:19:16;21.90;99.90
38784;DHT22;24531;45.502;12.238;2023-08-30T06:21:42;21.90;99.90
38784;DHT22;24531;45.502;12.238;2023-08-30T06:24:07;21.90;99.90
38784;DHT22;24531;45.502;12.238;2023-08-30T06:26:33;21.90;99.90
38784;DHT22;24531;45.502;12.238;2023-08-30T06:28:59;21.90;99.90
38784;DHT22;24531;45.502;12.238;2023-08-30T06:31:24;22.00;99.90
38784;DHT22;24531;45.502;12.238;2023-08-30T06:33:51;22.00;99.90
38784;DHT22;24531;45.502;12.238;2023-08-30T06:36:17;22.00;99.90
38784;DHT22;24531;45.502;12.238;2023-08-30T06:38:43;22.00;99.90
38784;DHT22;24531;45.502;12.238;2023-08-30T06:41:09;22.00;99.90
38784;DHT22;24531;45.502;12.238;2023-08-30T06:43:35;22.00;99.90
38784;DHT22;24531;45.502;12.238;2023-08-30T06:46:00;22.00;99.90
38784;DHT22;24531;45.502;12.238;2023-08-30T06:48:26;22.00;99.90
38784;DHT22;24531;45.502;12.238;2023-08-30T06:50:52;22.20;99.90
38784;DHT22;24531;45.502;12.238;2023-08-30T06:53:17;22.10;99.90
38784;DHT22;24531;45.502;12.238;2023-08-30T06:55:43;22.20;99.90
38784;DHT22;24531;45.502;12.238;2023-08-30T06:58:08;22.10;99.90
38784;DHT22;24531;45.502;12.238;2023-08-30T07:00:34;22.30;99.90
38784;DHT22;24531;45.502;12.238;2023-08-30T07:03:00;22.20;99.90
38784;DHT22;24531;45.502;12.238;2023-08-30T07:05:25;22.20;99.90
38784;DHT22;24531;45.502;12.238;2023-08-30T07:07:51;22.30;99.90
38784;DHT22;24531;45.502;12.238;2023-08-30T07:10:17;22.20;99.90
38784;DHT22;24531;45.502;12.238;2023-08-30T07:12:42;22.40;99.90
38784;DHT22;24531;45.502;12.238;2023-08-30T07:15:08;22.40;99.90
38784;DHT22;24531;45.502;12.238;2023-08-30T07:17:34;22.30;99.90
38784;DHT22;24531;45.502;12.238;2023-08-30T07:19:59;22.10;99.90
38784;DHT22;24531;45.502;12.238;2023-08-30T07:22:26;22.20;99.90
38784;DHT22;24531;45.502;12.238;2023-08-30T07:24:52;22.10;99.90
38784;DHT22;24531;45.502;12.238;2023-08-30T07:27:17;22.20;99.90
38784;DHT22;24531;45.502;12.238;2023-08-30T07:29:43;22.20;99.90
38784;DHT22;24531;45.502;12.238;2023-08-30T07:32:09;22.30;99.90
38784;DHT22;24531;45.502;12.238;2023-08-30T07:34:35;22.20;99.90
38784;DHT22;24531;45.502;12.238;2023-08-30T07:37:01;22.20;99.90
38784;DHT22;24531;45.502;12.238;2023-08-30T07:39:27;22.20;99.90
38784;DHT22;24531;45.502;12.238;2023-08-30T07:41:52;22.20;99.90
38784;DHT22;24531;45.502;12.238;2023-08-30T07:44:18;22.20;99.90
38784;DHT22;24531;45.502;12.238;2023-08-30T07:46:45;22.10;99.90
38784;DHT22;24531;45.502;12.238;2023-08-30T07:49:11;22.20;99.90
38784;DHT22;24531;45.502;12.238;2023-08-30T07:51:36;22.30;99.90
38784;DHT22;24531;45.502;12.238;2023-08-30T07:54:02;22.30;99.90
38784;DHT22;24531;45.502;12.238;2023-08-30T07:56:28;22.20;99.90
38784;DHT22;24531;45.502;12.238;2023-08-30T07:58:54;22.30;99.90
38784;DHT22;24531;45.502;12.238;2023-08-30T08:01:20;22.30;99.90
38784;DHT22;24531;45.502;12.238;2023-08-30T08:03:45;22.30;99.90
38784;DHT22;24531;45.502;12.238;2023-08-30T08:06:11;22.40;99.90
38784;DHT22;24531;45.502;12.238;2023-08-30T08:08:37;22.40;99.90
38784;DHT22;24531;45.502;12.238;2023-08-30T08:11:02;22.30;99.90
38784;DHT22;24531;45.502;12.238;2023-08-30T08:13:29;22.40;99.90
38784;DHT22;24531;45.502;12.238;2023-08-30T08:15:58;22.50;99.90
38784;DHT22;24531;45.502;12.238;2023-08-30T08:18:23;22.50;99.90
38784;DHT22;24531;45.502;12.238;2023-08-30T08:20:50;22.40;99.90
38784;DHT22;24531;45.502;12.238;2023-08-30T08:23:15;22.60;99.90
38784;DHT22;24531;45.502;12.238;2023-08-30T08:25:41;22.50;99.90
38784;DHT22;24531;45.502;12.238;2023-08-30T08:28:06;22.50;99.90
38784;DHT22;24531;45.502;12.238;2023-08-30T08:30:32;22.60;99.90
38784;DHT22;24531;45.502;12.238;2023-08-30T08:32:57;22.50;99.90
38784;DHT22;24531;45.502;12.238;2023-08-30T08:35:24;22.50;99.90
38784;DHT22;24531;45.502;12.238;2023-08-30T08:37:49;22.50;99.90
38784;DHT22;24531;45.502;12.238;2023-08-30T08:40:16;22.70;99.90
38784;DHT22;24531;45.502;12.238;2023-08-30T08:42:42;22.70;99.90
38784;DHT22;24531;45.502;12.238;2023-08-30T08:45:10;22.80;99.90
38784;DHT22;24531;45.502;12.238;2023-08-30T08:47:37;22.70;99.90
38784;DHT22;24531;45.502;12.238;2023-08-30T08:50:04;22.80;99.90
38784;DHT22;24531;45.502;12.238;2023-08-30T08:52:30;22.80;99.90
38784;DHT22;24531;45.502;12.238;2023-08-30T08:54:56;22.80;99.90
38784;DHT22;24531;45.502;12.238;2023-08-30T08:57:22;22.80;99.90
38784;DHT22;24531;45.502;12.238;2023-08-30T08:59:48;22.80;99.90
38784;DHT22;24531;45.502;12.238;2023-08-30T09:02:16;23.00;99.90
38784;DHT22;24531;45.502;12.238;2023-08-30T09:04:41;22.90;99.90
38784;DHT22;24531;45.502;12.238;2023-08-30T09:07:07;23.00;99.90
38784;DHT22;24531;45.502;12.238;2023-08-30T09:09:33;23.10;99.90
38784;DHT22;24531;45.502;12.238;2023-08-30T09:11:59;23.20;99.90
38784;DHT22;24531;45.502;12.238;2023-08-30T09:14:25;23.20;99.90
38784;DHT22;24531;45.502;12.238;2023-08-30T09:17:01;23.30;99.90
38784;DHT22;24531;45.502;12.238;2023-08-30T09:19:28;23.30;99.90
38784;DHT22;24531;45.502;12.238;2023-08-30T09:21:58;23.40;99.90
38784;DHT22;24531;45.502;12.238;2023-08-30T09:24:25;23.40;99.90
38784;DHT22;24531;45.502;12.238;2023-08-30T09:26:52;23.50;99.90
38784;DHT22;24531;45.502;12.238;2023-08-30T09:29:19;23.60;99.90
38784;DHT22;24531;45.502;12.238;2023-08-30T09:31:45;23.70;99.90
38784;DHT22;24531;45.502;12.238;2023-08-30T09:34:11;23.80;99.90
38784;DHT22;24531;45.502;12.238;2023-08-30T09:36:40;23.80;99.90
38784;DHT22;24531;45.502;12.238;2023-08-30T09:39:11;23.90;99.90
38784;DHT22;24531;45.502;12.238;2023-08-30T09:41:40;24.00;99.90
38784;DHT22;24531;45.502;12.238;2023-08-30T09:44:10;24.30;99.90
38784;DHT22;24531;45.502;12.238;2023-08-30T09:46:41;24.30;99.90
38784;DHT22;24531;45.502;12.238;2023-08-30T09:49:08;24.40;99.90
38784;DHT22;24531;45.502;12.238;2023-08-30T09:51:35;24.50;99.90
38784;DHT22;24531;45.502;12.238;2023-08-30T09:54:04;24.50;99.90
38784;DHT22;24531;45.502;12.238;2023-08-30T09:56:32;24.50;99.90
38784;DHT22;24531;45.502;12.238;2023-08-30T09:58:58;24.50;99.90
38784;DHT22;24531;45.502;12.238;2023-08-30T10:01:27;24.50;99.90
38784;DHT22;24531;45.502;12.238;2023-08-30T10:03:55;24.60;99.90
38784;DHT22;24531;45.502;12.238;2023-08-30T10:06:24;24.80;99.90
38784;DHT22;24531;45.502;12.238;2023-08-30T10:08:52;24.90;99.90
38784;DHT22;24531;45.502;12.238;2023-08-30T10:11:19;25.00;99.90
38784;DHT22;24531;45.502;12.238;2023-08-30T10:13:45;25.00;99.90
38784;DHT22;24531;45.502;12.238;2023-08-30T10:16:19;25.10;99.90
38784;DHT22;24531;45.502;12.238;2023-08-30T10:19:01;25.00;99.90
38784;DHT22;24531;45.502;12.238;2023-08-30T10:21:29;25.10;99.90
38784;DHT22;24531;45.502;12.238;2023-08-30T10:23:57;25.00;99.90
38784;DHT22;24531;45.502;12.238;2023-08-30T10:26:26;25.00;99.90
38784;DHT22;24531;45.502;12.238;2023-08-30T10:28:54;25.00;99.90
38784;DHT22;24531;45.502;12.238;2023-08-30T10:31:20;24.90;99.90
38784;DHT22;24531;45.502;12.238;2023-08-30T10:33:50;24.90;99.90
38784;DHT22;24531;45.502;12.238;2023-08-30T10:36:26;24.90;99.90
38784;DHT22;24531;45.502;12.238;2023-08-30T10:38:54;24.90;99.90
38784;DHT22;24531;45.502;12.238;2023-08-30T10:41:26;24.90;99.90
38784;DHT22;24531;45.502;12.238;2023-08-30T10:43:55;24.90;99.90
38784;DHT22;24531;45.502;12.238;2023-08-30T10:46:34;24.90;99.90
38784;DHT22;24531;45.502;12.238;2023-08-30T10:49:14;24.90;99.90
38784;DHT22;24531;45.502;12.238;2023-08-30T10:51:41;24.90;99.90
38784;DHT22;24531;45.502;12.238;2023-08-30T10:54:25;24.80;99.90
38784;DHT22;24531;45.502;12.238;2023-08-30T10:56:58;24.70;99.90
38784;DHT22;24531;45.502;12.238;2023-08-30T10:59:26;24.70;99.90
38784;DHT22;24531;45.502;12.238;2023-08-30T11:01:53;24.70;99.60
38784;DHT22;24531;45.502;12.238;2023-08-30T11:04:19;24.60;99.40
38784;DHT22;24531;45.502;12.238;2023-08-30T11:06:48;24.50;99.30
38784;DHT22;24531;45.502;12.238;2023-08-30T11:09:16;24.40;99.40
38784;DHT22;24531;45.502;12.238;2023-08-30T11:11:46;24.40;99.30
38784;DHT22;24531;45.502;12.238;2023-08-30T11:14:12;24.30;99.40
38784;DHT22;24531;45.502;12.238;2023-08-30T11:16:39;24.30;99.40
38784;DHT22;24531;45.502;12.238;2023-08-30T11:19:06;24.40;99.40
38784;DHT22;24531;45.502;12.238;2023-08-30T11:21:36;24.30;99.20
38784;DHT22;24531;45.502;12.238;2023-08-30T11:24:04;24.20;99.10
38784;DHT22;24531;45.502;12.238;2023-08-30T11:26:30;24.20;99.10
38784;DHT22;24531;45.502;12.238;2023-08-30T11:28:55;24.20;99.20
38784;DHT22;24531;45.502;12.238;2023-08-30T11:31:22;24.20;99.10
38784;DHT22;24531;45.502;12.238;2023-08-30T11:33:52;24.20;99.00
38784;DHT22;24531;45.502;12.238;2023-08-30T11:36:20;24.20;99.00
38784;DHT22;24531;45.502;12.238;2023-08-30T11:38:47;24.30;99.00
38784;DHT22;24531;45.502;12.238;2023-08-30T11:41:13;24.30;99.20
38784;DHT22;24531;45.502;12.238;2023-08-30T11:43:39;24.40;99.00
38784;DHT22;24531;45.502;12.238;2023-08-30T11:46:05;24.40;99.00
38784;DHT22;24531;45.502;12.238;2023-08-30T11:48:31;24.50;99.00
38784;DHT22;24531;45.502;12.238;2023-08-30T11:50:58;24.50;98.80
38784;DHT22;24531;45.502;12.238;2023-08-30T11:53:24;24.60;98.60
38784;DHT22;24531;45.502;12.238;2023-08-30T11:55:50;24.60;98.30
38784;DHT22;24531;45.502;12.238;2023-08-30T11:58:18;24.70;98.30
38784;DHT22;24531;45.502;12.238;2023-08-30T12:00:44;24.80;98.00
38784;DHT22;24531;45.502;12.238;2023-08-30T12:03:14;24.80;97.80
38784;DHT22;24531;45.502;12.238;2023-08-30T12:05:50;24.80;97.70
38784;DHT22;24531;45.502;12.238;2023-08-30T12:08:27;24.90;98.10
38784;DHT22;24531;45.502;12.238;2023-08-30T12:10:53;24.90;97.70
38784;DHT22;24531;45.502;12.238;2023-08-30T12:13:39;25.00;97.70
38784;DHT22;24531;45.502;12.238;2023-08-30T12:16:05;25.00;97.50
38784;DHT22;24531;45.502;12.238;2023-08-30T12:18:32;25.10;97.30
38784;DHT22;24531;45.502;12.238;2023-08-30T12:21:03;25.10;97.20
38784;DHT22;24531;45.502;12.238;2023-08-30T12:23:30;25.10;97.00
38784;DHT22;24531;45.502;12.238;2023-08-30T12:26:03;25.10;96.80
38784;DHT22;24531;45.502;12.238;2023-08-30T12:28:30;25.10;96.70
38784;DHT22;24531;45.502;12.238;2023-08-30T12:30:57;25.20;96.80
38784;DHT22;24531;45.502;12.238;2023-08-30T12:33:23;25.20;96.70
38784;DHT22;24531;45.502;12.238;2023-08-30T12:35:51;25.20;96.60
38784;DHT22;24531;45.502;12.238;2023-08-30T12:38:16;25.20;96.60
38784;DHT22;24531;45.502;12.238;2023-08-30T12:40:50;25.20;96.60
38784;DHT22;24531;45.502;12.238;2023-08-30T12:43:17;25.20;96.60
38784;DHT22;24531;45.502;12.238;2023-08-30T12:45:44;25.20;96.40
38784;DHT22;24531;45.502;12.238;2023-08-30T12:48:14;25.20;96.20
38784;DHT22;24531;45.502;12.238;2023-08-30T12:50:41;25.10;96.10
38784;DHT22;24531;45.502;12.238;2023-08-30T12:53:08;25.10;96.20
38784;DHT22;24531;45.502;12.238;2023-08-30T12:55:34;25.10;96.00
38784;DHT22;24531;45.502;12.238;2023-08-30T12:58:00;25.20;96.00
38784;DHT22;24531;45.502;12.238;2023-08-30T13:00:25;25.10;95.90
38784;DHT22;24531;45.502;12.238;2023-08-30T13:02:51;25.00;95.70
38784;DHT22;24531;45.502;12.238;2023-08-30T13:05:17;25.10;95.70
38784;DHT22;24531;45.502;12.238;2023-08-30T13:07:43;25.00;95.60
38784;DHT22;24531;45.502;12.238;2023-08-30T13:10:10;25.10;95.80
38784;DHT22;24531;45.502;12.238;2023-08-30T13:12:36;25.10;95.70
38784;DHT22;24531;45.502;12.238;2023-08-30T13:15:03;25.10;95.70
38784;DHT22;24531;45.502;12.238;2023-08-30T13:17:29;25.30;95.70
38784;DHT22;24531;45.502;12.238;2023-08-30T13:19:54;25.60;95.70
38784;DHT22;24531;45.502;12.238;2023-08-30T13:22:22;25.90;95.40
38784;DHT22;24531;45.502;12.238;2023-08-30T13:24:48;26.20;95.20
38784;DHT22;24531;45.502;12.238;2023-08-30T13:27:13;26.50;94.80
38784;DHT22;24531;45.502;12.238;2023-08-30T13:29:39;26.60;94.40
38784;DHT22;24531;45.502;12.238;2023-08-30T13:32:05;26.60;94.10
38784;DHT22;24531;45.502;12.238;2023-08-30T13:34:31;26.70;93.60
38784;DHT22;24531;45.502;12.238;2023-08-30T13:36:56;26.90;93.50
38784;DHT22;24531;45.502;12.238;2023-08-30T13:39:22;27.00;93.20
38784;DHT22;24531;45.502;12.238;2023-08-30T13:41:48;27.00;92.70
38784;DHT22;24531;45.502;12.238;2023-08-30T13:44:14;26.80;92.60
38784;DHT22;24531;45.502;12.238;2023-08-30T13:46:40;26.70;92.60
38784;DHT22;24531;45.502;12.238;2023-08-30T13:49:06;26.50;92.60
38784;DHT22;24531;45.502;12.238;2023-08-30T13:51:32;26.50;92.70
38784;DHT22;24531;45.502;12.238;2023-08-30T13:53:58;26.40;92.60
38784;DHT22;24531;45.502;12.238;2023-08-30T13:56:24;26.30;92.50
38784;DHT22;24531;45.502;12.238;2023-08-30T13:58:50;26.20;92.60
38784;DHT22;24531;45.502;12.238;2023-08-30T14:01:16;26.20;92.50
38784;DHT22;24531;45.502;12.238;2023-08-30T14:03:43;26.10;92.40
38784;DHT22;24531;45.502;12.238;2023-08-30T14:06:08;26.10;92.70
38784;DHT22;24531;45.502;12.238;2023-08-30T14:08:35;26.20;93.10
38784;DHT22;24531;45.502;12.238;2023-08-30T14:11:01;26.20;92.80
38784;DHT22;24531;45.502;12.238;2023-08-30T14:13:26;26.40;92.80
38784;DHT22;24531;45.502;12.238;2023-08-30T14:15:58;26.40;92.60
38784;DHT22;24531;45.502;12.238;2023-08-30T14:18:24;26.50;92.30
38784;DHT22;24531;45.502;12.238;2023-08-30T14:20:49;26.50;92.20
38784;DHT22;24531;45.502;12.238;2023-08-30T14:23:15;26.70;92.20
38784;DHT22;24531;45.502;12.238;2023-08-30T14:25:40;26.80;92.00
38784;DHT22;24531;45.502;12.238;2023-08-30T14:28:06;26.80;91.30
38784;DHT22;24531;45.502;12.238;2023-08-30T14:30:32;26.80;91.50
38784;DHT22;24531;45.502;12.238;2023-08-30T14:32:57;26.80;91.50
38784;DHT22;24531;45.502;12.238;2023-08-30T14:35:23;26.90;91.10
38784;DHT22;24531;45.502;12.238;2023-08-30T14:37:53;27.10;91.10
38784;DHT22;24531;45.502;12.238;2023-08-30T14:40:18;26.80;90.90
38784;DHT22;24531;45.502;12.238;2023-08-30T14:42:44;26.70;90.90
38784;DHT22;24531;45.502;12.238;2023-08-30T14:45:10;26.60;91.00
38784;DHT22;24531;45.502;12.238;2023-08-30T14:47:36;26.80;91.20
38784;DHT22;24531;45.502;12.238;2023-08-30T14:50:01;26.90;91.10
38784;DHT22;24531;45.502;12.238;2023-08-30T14:52:29;27.00;90.90
38784;DHT22;24531;45.502;12.238;2023-08-30T14:54:55;26.90;90.90
38784;DHT22;24531;45.502;12.238;2023-08-30T14:57:20;26.80;91.10
38784;DHT22;24531;45.502;12.238;2023-08-30T14:59:47;26.70;91.20
38784;DHT22;24531;45.502;12.238;2023-08-30T15:02:12;26.70;91.20
38784;DHT22;24531;45.502;12.238;2023-08-30T15:04:39;26.80;91.10
38784;DHT22;24531;45.502;12.238;2023-08-30T15:07:04;26.70;91.10
38784;DHT22;24531;45.502;12.238;2023-08-30T15:09:30;26.80;91.10
38784;DHT22;24531;45.502;12.238;2023-08-30T15:11:56;27.00;91.10
38784;DHT22;24531;45.502;12.238;2023-08-30T15:14:24;27.10;90.80
38784;DHT22;24531;45.502;12.238;2023-08-30T15:16:49;27.30;91.00